Time;durP1;ratioP1;P1;durP2;ratioP2;P2;SDS_P1;SDS_P2;PMS_P1;PMS_P2;Temp;Humidity;BMP_temperature;BMP_pressure;BME280_temperature;BME280_humidity;BME280_pressure;Samples;Min_cycle;Max_cycle;Signal;HPM_P1;HPM_P2
2022/05/26 00:01:37;;;;;;;;;;;;;;;;;;5037299;28;19909;-82
2022/05/26 00:04:03;;;;;;;;;;;;;;;;;;5031541;28;19944;-81
2022/05/26 00:06:29;;;;;;;;;;;;;;;;;;5019027;28;19950;-81
2022/05/26 00:08:55;;;;;;;;;;;;;;;;;;5005715;28;20004;-82
2022/05/26 00:11:26;;;;;;;;;;;;;;;;;;4987668;28;19909;-83
2022/05/26 00:13:52;;;;;;;;;;;;;;;;;;5004991;28;19909;-88
2022/05/26 00:16:18;;;;;;;;;;;;;;;;;;5022506;28;19905;-87
2022/05/26 00:18:43;;;;;;;;;;;;;;;;;;5034740;28;20372;-79
2022/05/26 00:21:09;;;;;;;;;;;;;;;;;;5017199;28;20009;-79
2022/05/26 00:23:34;;;;;;;;;;;;;;;;;;5027946;28;19909;-79
2022/05/26 00:25:59;;;;;;;;;;;;;;;;;;4990362;28;19913;-79
2022/05/26 00:28:25;;;;;;;;;;;;;;;;;;5013127;28;20002;-81
2022/05/26 00:30:50;;;;;;;;;;;;;;;;;;4991352;28;19964;-80
2022/05/26 00:33:15;;;;;;;;;;;;;;;;;;5015935;28;19917;-79
2022/05/26 00:35:41;;;;;;;;;;;;;;;;;;5018538;28;19910;-79
2022/05/26 00:38:07;;;;;;;;;;;;;;;;;;5027989;28;19916;-81
2022/05/26 00:40:32;;;;;;;;;;;;;;;;;;5002903;28;20376;-79
2022/05/26 00:42:57;;;;;;;;;;;;;;;;;;5001659;28;19961;-82
2022/05/26 00:45:23;;;;;;;;;;;;;;;;;;5010764;28;19917;-80
2022/05/26 00:47:48;;;;;;;;;;;;;;;;;;5019128;28;19909;-83
2022/05/26 00:50:13;;;;;;;;;;;;;;;;;;5015568;28;19909;-79
2022/05/26 00:52:42;;;;;;;;;;;;;;;;;;4982962;28;20296;-81
2022/05/26 00:55:07;;;;;;;;;;;;;;;;;;4985734;28;19909;-80
2022/05/26 00:57:32;;;;;;;;;;;;;;;;;;5095176;23;19927;-84
2022/05/26 00:59:58;;;;;;;;;;;;;;;;;;5084053;28;19909;-83
2022/05/26 01:02:23;;;;;;;;;;;;;;;;;;5052595;28;19968;-84
2022/05/26 01:04:49;;;;;;;;;;;;;;;;;;5065913;28;19941;-85
2022/05/26 01:07:15;;;;;;;;;;;;;;;;;;5076982;28;20379;-84
2022/05/26 01:09:40;;;;;;;;;;;;;;;;;;5057344;28;19908;-86
2022/05/26 01:12:05;;;;;;;;;;;;;;;;;;5041779;28;19982;-86
2022/05/26 01:14:31;;;;;;;;;;;;;;;;;;5076468;28;19908;-87
2022/05/26 01:16:56;;;;;;;;;;;;;;;;;;5061298;28;19913;-86
2022/05/26 01:19:21;;;;;;;;;;;;;;;;;;5066155;28;19931;-86
2022/05/26 01:21:47;;;;;;;;;;;;;;;;;;5083165;28;19909;-86
2022/05/26 01:24:12;;;;;;;;;;;;;;;;;;5081859;28;19972;-85
2022/05/26 01:26:37;;;;;;;;;;;;;;;;;;5039954;28;19927;-85
2022/05/26 01:29:03;;;;;;;;;;;;;;;;;;5034623;28;19915;-85
2022/05/26 01:31:28;;;;;;;;;;;;;;;;;;5047178;28;19915;-86
2022/05/26 01:33:54;;;;;;;;;;;;;;;;;;5020755;28;20000;-85
2022/05/26 01:36:19;;;;;;;;;;;;;;;;;;5019092;28;19920;-87
2022/05/26 01:38:48;;;;;;;;;;;;;;;;;;5045402;28;19908;-86
2022/05/26 01:41:13;;;;;;;;;;;;;;;;;;5057599;28;19915;-86
2022/05/26 01:43:39;;;;;;;;;;;;;;;;;;5039525;28;19908;-85
2022/05/26 01:46:04;;;;;;;;;;;;;;;;;;5056681;28;19917;-87
2022/05/26 01:48:29;;;;;;;;;;;;;;;;;;5057080;28;19915;-87
2022/05/26 01:50:54;;;;;;;;;;;;;;;;;;5041763;28;19959;-83
2022/05/26 01:53:20;;;;;;;;;;;;;;;;;;5074774;28;19905;-83
2022/05/26 01:55:46;;;;;;;;;;;;;;;;;;5026706;28;19916;-84
2022/05/26 01:58:15;;;;;;;;;;;;;;;;;;5076415;28;19962;-86
2022/05/26 02:00:40;;;;;;;;;;;;;;;;;;5071120;28;19947;-86
2022/05/26 02:03:06;;;;;;;;;;;;;;;;;;5056426;28;20263;-86
2022/05/26 02:05:31;;;;;;;;;;;;;;;;;;5067131;28;20289;-85
2022/05/26 02:07:56;;;;;;;;;;;;;;;;;;5056656;28;19908;-85
2022/05/26 02:10:22;;;;;;;;;;;;;;;;;;5057137;28;19909;-86
2022/05/26 02:12:47;;;;;;;;;;;;;;;;;;5059990;28;19954;-87
2022/05/26 02:15:12;;;;;;;;;;;;;;;;;;5051776;28;20318;-88
2022/05/26 02:17:38;;;;;;;;;;;;;;;;;;5056258;28;19991;-87
2022/05/26 02:20:03;;;;;;;;;;;;;;;;;;5057204;28;19976;-86
2022/05/26 02:22:29;;;;;;;;;;;;;;;;;;5024872;28;19908;-87
2022/05/26 02:24:54;;;;;;;;;;;;;;;;;;5054172;28;19954;-87
2022/05/26 02:27:20;;;;;;;;;;;;;;;;;;5050662;28;19935;-88
2022/05/26 02:29:51;;;;;;;;;;;;;;;;;;5072270;28;19913;-87
2022/05/26 02:32:17;;;;;;;;;;;;;;;;;;5060080;28;20405;-87
2022/05/26 02:34:44;;;;;;;;;;;;;;;;;;5037501;28;19948;-87
2022/05/26 02:37:09;;;;;;;;;;;;;;;;;;5032118;28;19909;-88
2022/05/26 02:39:35;;;;;;;;;;;;;;;;;;5047617;28;19908;-87
2022/05/26 02:42:00;;;;;;;;;;;;;;;;;;5044111;28;20069;-86
2022/05/26 02:44:26;;;;;;;;;;;;;;;;;;5064471;28;19920;-85
2022/05/26 02:46:52;;;;;;;;;;;;;;;;;;5068712;28;19912;-86
2022/05/26 02:49:17;;;;;;;;;;;;;;;;;;5075910;28;19908;-86
2022/05/26 02:51:43;;;;;;;;;;;;;;;;;;5071174;28;19954;-85
2022/05/26 02:54:08;;;;;;;;;;;;;;;;;;5046184;28;20343;-87
2022/05/26 02:56:33;;;;;;;;;;;;;;;;;;5024525;28;20405;-86
2022/05/26 02:58:59;;;;;;;;;;;;;;;;;;5061223;28;19913;-85
2022/05/26 03:01:24;;;;;;;;;;;;;;;;;;5067383;28;19908;-84
2022/05/26 03:03:49;;;;;;;;;;;;;;;;;;5054434;28;20393;-84
2022/05/26 03:06:15;;;;;;;;;;;;;;;;;;5028716;28;19920;-83
2022/05/26 03:08:40;;;;;;;;;;;;;;;;;;5055720;28;20191;-82
2022/05/26 03:11:06;;;;;;;;;;;;;;;;;;5050935;28;19979;-83
2022/05/26 03:13:31;;;;;;;;;;;;;;;;;;5041537;28;19919;-84
2022/05/26 03:15:56;;;;;;;;;;;;;;;;;;5061446;28;20404;-84
2022/05/26 03:18:22;;;;;;;;;;;;;;;;;;5024187;28;19909;-84
2022/05/26 03:20:47;;;;;;;;;;;;;;;;;;5051585;28;19908;-85
2022/05/26 03:23:13;;;;;;;;;;;;;;;;;;5050093;28;19940;-86
2022/05/26 03:25:38;;;;;;;;;;;;;;;;;;5064340;28;19971;-87
2022/05/26 03:28:04;;;;;;;;;;;;;;;;;;5040174;28;20015;-86
2022/05/26 03:30:29;;;;;;;;;;;;;;;;;;5030403;28;19915;-87
2022/05/26 03:32:54;;;;;;;;;;;;;;;;;;5027948;28;20367;-85
2022/05/26 03:40:51;;;;;;;;;;;;;;;;;;5058629;28;19940;-86
2022/05/26 03:43:16;;;;;;;;;;;;;;;;;;5043133;28;19909;-86
2022/05/26 03:45:42;;;;;;;;;;;;;;;;;;5033716;28;19924;-83
2022/05/26 03:48:07;;;;;;;;;;;;;;;;;;5069047;28;19915;-86
2022/05/26 03:50:33;;;;;;;;;;;;;;;;;;5024503;28;20367;-86
2022/05/26 03:52:58;;;;;;;;;;;;;;;;;;5065514;28;19913;-84
2022/05/26 03:55:24;;;;;;;;;;;;;;;;;;5047724;28;19923;-84
2022/05/26 03:57:49;;;;;;;;;;;;;;;;;;5062364;28;20004;-87
2022/05/26 04:00:15;;;;;;;;;;;;;;;;;;5023365;28;20385;-86
2022/05/26 04:02:40;;;;;;;;;;;;;;;;;;5056627;28;20463;-83
2022/05/26 04:05:05;;;;;;;;;;;;;;;;;;5014206;28;19913;-86
2022/05/26 04:07:31;;;;;;;;;;;;;;;;;;5045943;28;19935;-84
2022/05/26 04:09:56;;;;;;;;;;;;;;;;;;5036442;28;19915;-88
2022/05/26 04:12:21;;;;;;;;;;;;;;;;;;5057711;28;20379;-86
2022/05/26 04:14:47;;;;;;;;;;;;;;;;;;5048628;28;19977;-85
2022/05/26 04:17:12;;;;;;;;;;;;;;;;;;5025358;28;19908;-85
2022/05/26 04:19:41;;;;;;;;;;;;;;;;;;5055695;28;19908;-85
2022/05/26 04:22:15;;;;;;;;;;;;;;;;;;5045800;28;20376;-85
2022/05/26 04:24:40;;;;;;;;;;;;;;;;;;5071951;28;19908;-83
2022/05/26 04:27:06;;;;;;;;;;;;;;;;;;5044930;28;20398;-86
2022/05/26 04:29:31;;;;;;;;;;;;;;;;;;5041065;28;20424;-84
2022/05/26 04:31:56;;;;;;;;;;;;;;;;;;5068618;28;20379;-86
2022/05/26 04:34:22;;;;;;;;;;;;;;;;;;5061506;28;20330;-84
2022/05/26 04:36:48;;;;;;;;;;;;;;;;;;5056585;28;19921;-86
2022/05/26 04:39:14;;;;;;;;;;;;;;;;;;5059810;28;20430;-86
2022/05/26 04:41:40;;;;;;;;;;;;;;;;;;5035024;28;19999;-86
2022/05/26 04:44:06;;;;;;;;;;;;;;;;;;5025034;28;19916;-86
2022/05/26 04:46:32;;;;;;;;;;;;;;;;;;5042015;28;19966;-86
2022/05/26 04:48:58;;;;;;;;;;;;;;;;;;5070006;28;19912;-86
2022/05/26 04:51:23;;;;;;;;;;;;;;;;;;5068738;28;19962;-85
2022/05/26 04:53:48;;;;;;;;;;;;;;;;;;5040158;28;19909;-86
2022/05/26 04:56:14;;;;;;;;;;;;;;;;;;5061576;28;19916;-85
2022/05/26 04:58:39;;;;;;;;;;;;;;;;;;5065925;28;20379;-85
2022/05/26 05:01:05;;;;;;;;;;;;;;;;;;5039745;28;19908;-85
2022/05/26 05:03:30;;;;;;;;;;;;;;;;;;5034835;28;19905;-86
2022/05/26 05:05:56;;;;;;;;;;;;;;;;;;5056590;28;19924;-86
2022/05/26 05:08:22;;;;;;;;;;;;;;;;;;5042849;28;19956;-84
2022/05/26 05:10:47;;;;;;;;;;;;;;;;;;5056088;28;19948;-87
2022/05/26 05:13:12;;;;;;;;;;;;;;;;;;5040389;28;19930;-88
2022/05/26 05:15:38;;;;;;;;;;;;;;;;;;5067591;28;20375;-88
2022/05/26 05:18:03;;;;;;;;;;;;;;;;;;5074432;28;20394;-88
2022/05/26 05:20:28;;;;;;;;;;;;;;;;;;5073569;28;20391;-88
2022/05/26 05:22:54;;;;;;;;;;;;;;;;;;5053957;28;19991;-88
2022/05/26 05:25:19;;;;;;;;;;;;;;;;;;5047917;28;20329;-86
2022/05/26 05:27:44;;;;;;;;;;;;;;;;;;5066255;28;19916;-88
2022/05/26 05:30:10;;;;;;;;;;;;;;;;;;5065077;28;19908;-85
2022/05/26 05:32:35;;;;;;;;;;;;;;;;;;5075480;28;19915;-87
2022/05/26 05:35:02;;;;;;;;;;;;;;;;;;5065322;28;20034;-87
2022/05/26 05:37:27;;;;;;;;;;;;;;;;;;5055636;28;19995;-84
2022/05/26 05:39:53;;;;;;;;;;;;;;;;;;5063976;28;20406;-84
2022/05/26 05:42:18;;;;;;;;;;;;;;;;;;5071771;28;19904;-87
2022/05/26 05:44:43;;;;;;;;;;;;;;;;;;5060855;28;19916;-85
2022/05/26 05:47:09;;;;;;;;;;;;;;;;;;5055235;28;19912;-85
2022/05/26 05:49:35;;;;;;;;;;;;;;;;;;5057589;28;19908;-85
2022/05/26 05:52:00;;;;;;;;;;;;;;;;;;5051507;28;20012;-83
2022/05/26 05:54:25;;;;;;;;;;;;;;;;;;5055777;28;20368;-87
2022/05/26 05:56:51;;;;;;;;;;;;;;;;;;5068008;28;20421;-86
2022/05/26 05:59:16;;;;;;;;;;;;;;;;;;5045771;28;19904;-86
2022/05/26 06:01:41;;;;;;;;;;;;;;;;;;5060866;28;19912;-86
2022/05/26 06:04:07;;;;;;;;;;;;;;;;;;5050021;28;20397;-85
2022/05/26 06:06:32;;;;;;;;;;;;;;;;;;5051656;28;20446;-86
2022/05/26 06:08:57;;;;;;;;;;;;;;;;;;5072004;28;19954;-83
2022/05/26 06:11:23;;;;;;;;;;;;;;;;;;5063877;28;19912;-84
2022/05/26 06:13:48;;;;;;;;;;;;;;;;;;5068624;28;19909;-84
2022/05/26 06:16:13;;;;;;;;;;;;;;;;;;5056411;28;19999;-84
2022/05/26 06:18:39;;;;;;;;;;;;;;;;;;5055971;28;19948;-84
2022/05/26 06:21:04;;;;;;;;;;;;;;;;;;5053520;28;19936;-83
2022/05/26 06:23:29;;;;;;;;;;;;;;;;;;5038865;28;20381;-83
2022/05/26 06:25:55;;;;;;;;;;;;;;;;;;5068850;28;19912;-84
2022/05/26 06:31:04;;;;;;;;;;;;;;;;;;5064894;28;19921;-84
2022/05/26 06:38:58;;;;;;;;;;;;;;;;;;5029939;28;19962;-85
2022/05/26 06:44:07;;;;;;;;;;;;;;;;;;5070862;28;19915;-83
2022/05/26 06:46:33;;;;;;;;;;;;;;;;;;5038236;28;19912;-83
2022/05/26 06:48:58;;;;;;;;;;;;;;;;;;5065484;28;19905;-84
2022/05/26 06:51:26;;;;;;;;;;;;;;;;;;5060565;28;20273;-87
2022/05/26 06:53:54;;;;;;;;;;;;;;;;;;5052305;28;20282;-83
2022/05/26 06:56:19;;;;;;;;;;;;;;;;;;5069995;28;19908;-84
2022/05/26 06:58:45;;;;;;;;;;;;;;;;;;5039957;28;19908;-80
2022/05/26 07:01:10;;;;;;;;;;;;;;;;;;5045676;28;20435;-85
2022/05/26 07:03:36;;;;;;;;;;;;;;;;;;5064867;28;19908;-84
2022/05/26 07:06:01;;;;;;;;;;;;;;;;;;5039273;28;19920;-85
2022/05/26 07:08:27;;;;;;;;;;;;;;;;;;5051264;28;19904;-85
2022/05/26 07:10:54;;;;;;;;;;;;;;;;;;5050449;28;19909;-85
2022/05/26 07:13:20;;;;;;;;;;;;;;;;;;5039232;28;20317;-84
2022/05/26 07:15:46;;;;;;;;;;;;;;;;;;5037575;28;19920;-84
2022/05/26 07:18:11;;;;;;;;;;;;;;;;;;5055284;28;19913;-86
2022/05/26 07:20:37;;;;;;;;;;;;;;;;;;5050462;28;19908;-85
2022/05/26 07:23:02;;;;;;;;;;;;;;;;;;5060412;28;19966;-79
2022/05/26 07:25:28;;;;;;;;;;;;;;;;;;5049227;28;19960;-81
2022/05/26 07:27:54;;;;;;;;;;;;;;;;;;5070091;28;20371;-81
2022/05/26 07:30:19;;;;;;;;;;;;;;;;;;5070162;28;20374;-81
2022/05/26 07:33:07;;;;;;;;;;;;;;;;;;5063380;28;19909;-84
2022/05/26 07:35:32;;;;;;;;;;;;;;;;;;5054318;28;20291;-81
2022/05/26 07:43:26;;;;;;;;;;;;;;;;;;5067395;28;19924;-83
2022/05/26 07:45:51;;;;;;;;;;;;;;;;;;5053578;28;19977;-81
2022/05/26 07:48:17;;;;;;;;;;;;;;;;;;5044586;28;19927;-82
2022/05/26 07:50:42;;;;;;;;;;;;;;;;;;5038869;28;19909;-84
2022/05/26 07:53:08;;;;;;;;;;;;;;;;;;5063230;28;19909;-82
2022/05/26 07:55:33;;;;;;;;;;;;;;;;;;5045972;28;19909;-84
2022/05/26 07:57:58;;;;;;;;;;;;;;;;;;5044119;28;20362;-85
2022/05/26 08:00:24;;;;;;;;;;;;;;;;;;5053531;28;19908;-82
2022/05/26 08:02:49;;;;;;;;;;;;;;;;;;5066055;28;19995;-81
2022/05/26 08:05:14;;;;;;;;;;;;;;;;;;5061720;28;19931;-77
2022/05/26 08:07:41;;;;;;;;;;;;;;;;;;5053298;28;19995;-79
2022/05/26 08:10:06;;;;;;;;;;;;;;;;;;5054841;28;19915;-81
2022/05/26 08:12:31;;;;;;;;;;;;;;;;;;5049626;28;20383;-81
2022/05/26 08:14:57;;;;;;;;;;;;;;;;;;5066657;28;19920;-80
2022/05/26 08:17:23;;;;;;;;;;;;;;;;;;5052552;28;19915;-76
2022/05/26 08:19:48;;;;;;;;;;;;;;;;;;5049412;28;19940;-79
2022/05/26 08:22:14;;;;;;;;;;;;;;;;;;5036977;28;19914;-78
2022/05/26 08:24:39;;;;;;;;;;;;;;;;;;5043803;28;20351;-77
2022/05/26 08:27:07;;;;;;;;;;;;;;;;;;5051051;28;20042;-77
2022/05/26 08:29:33;;;;;;;;;;;;;;;;;;5031977;28;19944;-79
2022/05/26 08:31:58;;;;;;;;;;;;;;;;;;5069020;28;20019;-79
2022/05/26 08:34:24;;;;;;;;;;;;;;;;;;5054422;28;19913;-80
2022/05/26 08:36:49;;;;;;;;;;;;;;;;;;5039199;28;20291;-80
2022/05/26 08:39:14;;;;;;;;;;;;;;;;;;5061683;28;19939;-78
2022/05/26 08:41:40;;;;;;;;;;;;;;;;;;5048876;28;19909;-78
2022/05/26 08:44:05;;;;;;;;;;;;;;;;;;5064588;28;19909;-80
2022/05/26 08:46:31;;;;;;;;;;;;;;;;;;5065515;28;19917;-80
2022/05/26 08:48:56;;;;;;;;;;;;;;;;;;5049815;28;19967;-78
2022/05/26 08:51:21;;;;;;;;;;;;;;;;;;5051886;28;20402;-79
2022/05/26 08:53:47;;;;;;;;;;;;;;;;;;5053695;28;19909;-79
2022/05/26 08:56:12;;;;;;;;;;;;;;;;;;5056923;28;19909;-80
2022/05/26 08:58:37;;;;;;;;;;;;;;;;;;5059190;28;19908;-78
2022/05/26 09:01:06;;;;;;;;;;;;;;;;;;5051601;28;20449;-79
2022/05/26 09:03:37;;;;;;;;;;;;;;;;;;5053070;28;19916;-78
2022/05/26 09:06:06;;;;;;;;;;;;;;;;;;5074072;28;19913;-79
2022/05/26 09:14:00;;;;;;;;;;;;;;;;;;5059031;28;19909;-79
2022/05/26 09:16:25;;;;;;;;;;;;;;;;;;5070797;28;20393;-82
2022/05/26 09:18:50;;;;;;;;;;;;;;;;;;5058089;28;20367;-80
2022/05/26 09:21:16;;;;;;;;;;;;;;;;;;5034120;28;19912;-80
2022/05/26 09:23:44;;;;;;;;;;;;;;;;;;5074373;28;19912;-79
2022/05/26 09:26:11;;;;;;;;;;;;;;;;;;5072896;28;19909;-80
2022/05/26 09:28:36;;;;;;;;;;;;;;;;;;5056451;28;19909;-79
2022/05/26 09:31:01;;;;;;;;;;;;;;;;;;5066524;28;19912;-81
2022/05/26 09:33:27;;;;;;;;;;;;;;;;;;5057139;28;19912;-81
2022/05/26 09:35:52;;;;;;;;;;;;;;;;;;5042682;28;19916;-81
2022/05/26 09:38:17;;;;;;;;;;;;;;;;;;5034924;28;19915;-80
2022/05/26 09:40:47;;;;;;;;;;;;;;;;;;5054660;28;19944;-80
2022/05/26 09:43:12;;;;;;;;;;;;;;;;;;5047692;28;19909;-81
2022/05/26 09:45:38;;;;;;;;;;;;;;;;;;5066658;28;20256;-80
2022/05/26 09:48:04;;;;;;;;;;;;;;;;;;5024366;28;20299;-81
2022/05/26 09:50:29;;;;;;;;;;;;;;;;;;5053372;28;19909;-81
2022/05/26 09:52:54;;;;;;;;;;;;;;;;;;5053386;28;19954;-81
2022/05/26 09:55:20;;;;;;;;;;;;;;;;;;5037181;28;19908;-81
2022/05/26 09:57:45;;;;;;;;;;;;;;;;;;5038848;28;19912;-80
2022/05/26 10:00:11;;;;;;;;;;;;;;;;;;5043026;28;19994;-81
2022/05/26 10:02:38;;;;;;;;;;;;;;;;;;5055726;28;20386;-82
2022/05/26 10:05:03;;;;;;;;;;;;;;;;;;5065216;28;19935;-81
2022/05/26 10:07:30;;;;;;;;;;;;;;;;;;5039114;28;19918;-80
2022/05/26 10:09:55;;;;;;;;;;;;;;;;;;5042016;28;19999;-81
2022/05/26 10:12:20;;;;;;;;;;;;;;;;;;5050507;28;20325;-81
2022/05/26 10:14:46;;;;;;;;;;;;;;;;;;5050524;28;19955;-83
2022/05/26 10:17:13;;;;;;;;;;;;;;;;;;5036319;28;20413;-82
2022/05/26 10:19:39;;;;;;;;;;;;;;;;;;5048619;28;19959;-82
2022/05/26 10:22:08;;;;;;;;;;;;;;;;;;5039603;28;19960;-81
2022/05/26 10:24:34;;;;;;;;;;;;;;;;;;4983652;28;20328;-84
2022/05/26 10:27:00;;;;;;;;;;;;;;;;;;5011304;28;19996;-81
2022/05/26 10:29:25;;;;;;;;;;;;;;;;;;5070022;28;19998;-82
2022/05/26 10:31:51;;;;;;;;;;;;;;;;;;5041266;28;19913;-82
2022/05/26 10:34:19;;;;;;;;;;;;;;;;;;5044496;28;19905;-82
2022/05/26 10:36:44;;;;;;;;;;;;;;;;;;5033191;28;19913;-81
2022/05/26 10:39:10;;;;;;;;;;;;;;;;;;5049498;28;20398;-81
2022/05/26 10:41:35;;;;;;;;;;;;;;;;;;5041577;28;20360;-81
2022/05/26 10:44:01;;;;;;;;;;;;;;;;;;5065971;28;19998;-81
2022/05/26 10:46:26;;;;;;;;;;;;;;;;;;5066258;28;20403;-82
2022/05/26 10:48:52;;;;;;;;;;;;;;;;;;5038552;28;20499;-81
2022/05/26 10:51:17;;;;;;;;;;;;;;;;;;5052683;28;19908;-82
2022/05/26 10:53:44;;;;;;;;;;;;;;;;;;5041290;28;20352;-83
2022/05/26 10:56:10;;;;;;;;;;;;;;;;;;5054817;28;20378;-82
2022/05/26 10:58:37;;;;;;;;;;;;;;;;;;5056607;28;19916;-81
2022/05/26 11:01:02;;;;;;;;;;;;;;;;;;5071080;28;19908;-83
2022/05/26 11:03:28;;;;;;;;;;;;;;;;;;5067029;28;19915;-83
2022/05/26 11:05:53;;;;;;;;;;;;;;;;;;5054439;28;19940;-82
2022/05/26 11:08:19;;;;;;;;;;;;;;;;;;5066689;28;19997;-82
2022/05/26 11:10:44;;;;;;;;;;;;;;;;;;5058017;28;19954;-82
2022/05/26 11:13:09;;;;;;;;;;;;;;;;;;5063955;28;20290;-82
2022/05/26 11:18:19;;;;;;;;;;;;;;;;;;5057315;28;19908;-83
2022/05/26 11:20:45;;;;;;;;;;;;;;;;;;5055191;28;20045;-82
2022/05/26 11:23:10;;;;;;;;;;;;;;;;;;5031771;28;19920;-82
2022/05/26 11:25:38;;;;;;;;;;;;;;;;;;5056046;28;19937;-81
2022/05/26 11:28:07;;;;;;;;;;;;;;;;;;5038543;28;19999;-82
2022/05/26 11:36:10;;;;;;;;;;;;;;;;;;5032575;28;20011;-81
2022/05/26 11:38:35;;;;;;;;;;;;;;;;;;5040238;28;19918;-82
2022/05/26 11:41:00;;;;;;;;;;;;;;;;;;5041302;28;20000;-81
2022/05/26 11:43:26;;;;;;;;;;;;;;;;;;5055002;28;20359;-81
2022/05/26 11:45:54;;;;;;;;;;;;;;;;;;5057873;28;19979;-81
2022/05/26 11:48:20;;;;;;;;;;;;;;;;;;5052160;28;20363;-81
2022/05/26 11:50:45;;;;;;;;;;;;;;;;;;5052698;28;19909;-82
2022/05/26 11:53:10;;;;;;;;;;;;;;;;;;5055537;28;19908;-82
2022/05/26 11:55:36;;;;;;;;;;;;;;;;;;5063215;28;19913;-82
2022/05/26 11:58:01;;;;;;;;;;;;;;;;;;5052513;28;20383;-81
2022/05/26 12:00:26;;;;;;;;;;;;;;;;;;5070485;28;19919;-84
2022/05/26 12:02:52;;;;;;;;;;;;;;;;;;5059074;28;20347;-81
2022/05/26 12:05:17;;;;;;;;;;;;;;;;;;5044500;28;19908;-81
2022/05/26 12:07:45;;;;;;;;;;;;;;;;;;5062294;28;19972;-81
2022/05/26 12:10:11;;;;;;;;;;;;;;;;;;5061874;28;19908;-81
2022/05/26 12:12:36;;;;;;;;;;;;;;;;;;5072081;28;20402;-83
2022/05/26 12:15:03;;;;;;;;;;;;;;;;;;5046872;28;20404;-82
2022/05/26 12:17:29;;;;;;;;;;;;;;;;;;5055544;28;19909;-81
2022/05/26 12:19:54;;;;;;;;;;;;;;;;;;5058062;28;19908;-81
2022/05/26 12:22:20;;;;;;;;;;;;;;;;;;5049108;28;19992;-82
2022/05/26 12:24:45;;;;;;;;;;;;;;;;;;5039699;28;19942;-81
2022/05/26 12:27:11;;;;;;;;;;;;;;;;;;5033827;28;19920;-81
2022/05/26 12:29:36;;;;;;;;;;;;;;;;;;5066155;28;19913;-81
2022/05/26 12:32:02;;;;;;;;;;;;;;;;;;5039757;28;20282;-80
2022/05/26 12:34:30;;;;;;;;;;;;;;;;;;5044243;28;19908;-81
2022/05/26 12:36:56;;;;;;;;;;;;;;;;;;5035835;28;19908;-81
2022/05/26 12:39:21;;;;;;;;;;;;;;;;;;5061437;28;19927;-83
2022/05/26 12:41:47;;;;;;;;;;;;;;;;;;5054177;28;19908;-81
2022/05/26 12:44:12;;;;;;;;;;;;;;;;;;5043043;28;19950;-82
2022/05/26 12:46:39;;;;;;;;;;;;;;;;;;5040421;28;19912;-82
2022/05/26 12:49:05;;;;;;;;;;;;;;;;;;5063690;28;19908;-81
2022/05/26 12:51:30;;;;;;;;;;;;;;;;;;5050390;28;19955;-82
2022/05/26 12:53:56;;;;;;;;;;;;;;;;;;5073410;28;19908;-83
2022/05/26 12:56:24;;;;;;;;;;;;;;;;;;5060615;28;19909;-79
2022/05/26 12:58:49;;;;;;;;;;;;;;;;;;5056032;28;19908;-81
2022/05/26 13:01:14;;;;;;;;;;;;;;;;;;5042545;28;20481;-81
2022/05/26 13:03:40;;;;;;;;;;;;;;;;;;5065920;28;19909;-82
2022/05/26 13:06:08;;;;;;;;;;;;;;;;;;5079535;28;20350;-82
2022/05/26 13:08:33;;;;;;;;;;;;;;;;;;5025524;28;20275;-83
2022/05/26 13:10:59;;;;;;;;;;;;;;;;;;5062043;28;20404;-82
2022/05/26 13:13:24;;;;;;;;;;;;;;;;;;5060828;22;19931;-80
2022/05/26 13:15:49;;;;;;;;;;;;;;;;;;5075208;28;20272;-80
2022/05/26 13:18:15;;;;;;;;;;;;;;;;;;5063177;28;19979;-80
2022/05/26 13:20:41;;;;;;;;;;;;;;;;;;5037266;28;19909;-80
2022/05/26 13:23:06;;;;;;;;;;;;;;;;;;5061653;28;19917;-79
2022/05/26 13:25:32;;;;;;;;;;;;;;;;;;5055660;28;19995;-79
2022/05/26 13:27:58;;;;;;;;;;;;;;;;;;5040388;28;19909;-78
2022/05/26 13:33:22;;;;;;;;;;;;;;;;;;5010615;28;19914;-79
2022/05/26 13:35:47;;;;;;;;;;;;;;;;;;5044639;28;19913;-81
2022/05/26 13:38:13;;;;;;;;;;;;;;;;;;5055597;28;20310;-80
2022/05/26 13:40:38;;;;;;;;;;;;;;;;;;5036844;28;19912;-80
2022/05/26 13:43:04;;;;;;;;;;;;;;;;;;5037635;28;19909;-80
2022/05/26 13:45:30;;;;;;;;;;;;;;;;;;5055358;28;19913;-82
2022/05/26 13:47:55;;;;;;;;;;;;;;;;;;5055540;28;20322;-81
2022/05/26 13:50:20;;;;;;;;;;;;;;;;;;5039814;28;20243;-80
2022/05/26 13:52:46;;;;;;;;;;;;;;;;;;5031804;28;19959;-80
2022/05/26 13:55:17;;;;;;;;;;;;;;;;;;5037848;28;19938;-79
2022/05/26 13:57:43;;;;;;;;;;;;;;;;;;5020696;28;19908;-79
2022/05/26 14:00:08;;;;;;;;;;;;;;;;;;5004577;28;19999;-78
2022/05/26 14:02:34;;;;;;;;;;;;;;;;;;5020398;28;19915;-80
2022/05/26 14:05:20;;;;;;;;;;;;;;;;;;5020489;28;19908;-80
2022/05/26 14:07:48;;;;;;;;;;;;;;;;;;5044659;28;19912;-81
2022/05/26 14:10:14;;;;;;;;;;;;;;;;;;5031007;28;20331;-79
2022/05/26 14:12:40;;;;;;;;;;;;;;;;;;5023684;28;19905;-80
2022/05/26 14:15:05;;;;;;;;;;;;;;;;;;5029786;28;19920;-79
2022/05/26 14:17:40;;;;;;;;;;;;;;;;;;5006844;28;19908;-77
2022/05/26 14:20:05;;;;;;;;;;;;;;;;;;5056171;28;20045;-78
2022/05/26 14:22:31;;;;;;;;;;;;;;;;;;5036453;28;20453;-79
2022/05/26 14:24:57;;;;;;;;;;;;;;;;;;5059071;28;19931;-80
2022/05/26 14:27:24;;;;;;;;;;;;;;;;;;5045212;28;19963;-82
2022/05/26 14:29:54;;;;;;;;;;;;;;;;;;5036108;28;19908;-79
2022/05/26 14:32:30;;;;;;;;;;;;;;;;;;5020954;28;19951;-80
2022/05/26 14:34:58;;;;;;;;;;;;;;;;;;5019848;28;19985;-80
2022/05/26 14:37:34;;;;;;;;;;;;;;;;;;5020643;28;20017;-81
2022/05/26 14:40:00;;;;;;;;;;;;;;;;;;5060982;28;20375;-80
2022/05/26 14:42:25;;;;;;;;;;;;;;;;;;5053351;28;19905;-79
2022/05/26 14:44:51;;;;;;;;;;;;;;;;;;5035842;28;19975;-78
2022/05/26 14:47:22;;;;;;;;;;;;;;;;;;5035652;28;20378;-79
2022/05/26 14:49:48;;;;;;;;;;;;;;;;;;5021017;28;19908;-82
2022/05/26 14:52:14;;;;;;;;;;;;;;;;;;5037193;28;19908;-81
2022/05/26 14:57:25;;;;;;;;;;;;;;;;;;5032797;28;20397;-78
2022/05/26 14:59:50;;;;;;;;;;;;;;;;;;5025464;28;19917;-78
2022/05/26 15:02:15;;;;;;;;;;;;;;;;;;5052904;28;19912;-81
2022/05/26 15:04:41;;;;;;;;;;;;;;;;;;5036037;28;20356;-80
2022/05/26 15:07:07;;;;;;;;;;;;;;;;;;5036997;28;19916;-82
2022/05/26 15:09:32;;;;;;;;;;;;;;;;;;5020082;28;19913;-80
2022/05/26 15:11:58;;;;;;;;;;;;;;;;;;5003880;28;19912;-80
2022/05/26 15:14:23;;;;;;;;;;;;;;;;;;5050553;28;19984;-80
2022/05/26 15:16:49;;;;;;;;;;;;;;;;;;5005737;28;19923;-79
2022/05/26 15:19:14;;;;;;;;;;;;;;;;;;5038728;28;19913;-79
2022/05/26 15:21:40;;;;;;;;;;;;;;;;;;5059846;28;20367;-78
2022/05/26 15:24:05;;;;;;;;;;;;;;;;;;5040887;28;19909;-80
2022/05/26 15:26:33;;;;;;;;;;;;;;;;;;5040557;28;20001;-80
2022/05/26 15:29:02;;;;;;;;;;;;;;;;;;5008116;28;19931;-80
2022/05/26 15:31:29;;;;;;;;;;;;;;;;;;5010398;28;19952;-80
2022/05/26 15:34:00;;;;;;;;;;;;;;;;;;5023424;28;19916;-77
2022/05/26 15:36:26;;;;;;;;;;;;;;;;;;5017008;28;19909;-79
2022/05/26 15:38:51;;;;;;;;;;;;;;;;;;5023428;28;19960;-80
2022/05/26 15:41:17;;;;;;;;;;;;;;;;;;5054511;28;19919;-80
2022/05/26 15:43:42;;;;;;;;;;;;;;;;;;5020282;28;19958;-82
2022/05/26 15:46:11;;;;;;;;;;;;;;;;;;5037234;28;19920;-81
2022/05/26 15:48:37;;;;;;;;;;;;;;;;;;5058733;28;20357;-80
2022/05/26 15:51:05;;;;;;;;;;;;;;;;;;5046698;28;19904;-82
2022/05/26 15:53:32;;;;;;;;;;;;;;;;;;5054042;28;19932;-80
2022/05/26 15:55:58;;;;;;;;;;;;;;;;;;5079604;28;19962;-80
2022/05/26 15:58:25;;;;;;;;;;;;;;;;;;5019004;28;19996;-80
2022/05/26 16:00:51;;;;;;;;;;;;;;;;;;5003235;28;19909;-79
2022/05/26 16:03:17;;;;;;;;;;;;;;;;;;5020041;28;19915;-79
2022/05/26 16:05:42;;;;;;;;;;;;;;;;;;5030315;28;19911;-79
2022/05/26 16:08:10;;;;;;;;;;;;;;;;;;5032955;28;20367;-78
2022/05/26 16:10:36;;;;;;;;;;;;;;;;;;5040733;28;19947;-80
2022/05/26 16:13:10;;;;;;;;;;;;;;;;;;5058897;28;19915;-81
2022/05/26 16:15:36;;;;;;;;;;;;;;;;;;5025220;28;19913;-81
2022/05/26 16:18:06;;;;;;;;;;;;;;;;;;5023784;28;19940;-79
2022/05/26 16:20:31;;;;;;;;;;;;;;;;;;5024650;28;19931;-79
2022/05/26 16:22:57;;;;;;;;;;;;;;;;;;5063432;28;19913;-78
2022/05/26 16:25:26;;;;;;;;;;;;;;;;;;5030914;28;19945;-80
2022/05/26 16:27:58;;;;;;;;;;;;;;;;;;5024168;28;19916;-79
2022/05/26 16:30:26;;;;;;;;;;;;;;;;;;5025246;28;19908;-80
2022/05/26 16:32:54;;;;;;;;;;;;;;;;;;5065360;28;20389;-81
2022/05/26 16:38:08;;;;;;;;;;;;;;;;;;5038181;28;20422;-80
2022/05/26 16:40:34;;;;;;;;;;;;;;;;;;5006387;28;20016;-81
2022/05/26 16:43:05;;;;;;;;;;;;;;;;;;4995046;28;19996;-80
2022/05/26 16:45:31;;;;;;;;;;;;;;;;;;5005022;28;19916;-79
2022/05/26 16:47:57;;;;;;;;;;;;;;;;;;5021979;28;19913;-79
2022/05/26 16:50:26;;;;;;;;;;;;;;;;;;5006599;28;19915;-79
2022/05/26 16:52:52;;;;;;;;;;;;;;;;;;5021944;28;19908;-81
2022/05/26 16:55:19;;;;;;;;;;;;;;;;;;5022484;28;20387;-78
2022/05/26 16:57:51;;;;;;;;;;;;;;;;;;5036133;28;19948;-77
2022/05/26 17:00:16;;;;;;;;;;;;;;;;;;5043037;28;19908;-80
2022/05/26 17:02:51;;;;;;;;;;;;;;;;;;5040286;28;19950;-80
2022/05/26 17:05:17;;;;;;;;;;;;;;;;;;5007155;28;20003;-81
2022/05/26 17:07:48;;;;;;;;;;;;;;;;;;5014332;28;19924;-81
2022/05/26 17:10:14;;;;;;;;;;;;;;;;;;5017230;28;19909;-81
2022/05/26 17:21:01;;;;;;;;;;;;;;;;;;5037883;28;20434;-80
2022/05/26 17:23:30;;;;;;;;;;;;;;;;;;5006121;28;19920;-80
2022/05/26 17:25:59;;;;;;;;;;;;;;;;;;5004789;28;20367;-79
2022/05/26 17:28:27;;;;;;;;;;;;;;;;;;5055107;28;19917;-80
2022/05/26 17:30:57;;;;;;;;;;;;;;;;;;5021328;28;19939;-79